sensor_id;sensor_type;location;lat;lon;timestamp;pressure;altitude;pressure_sealevel;temperature;humidity
1207;BME280;593;53.184;8.216;2022-09-02T00:02:16;101679.84;;;18.39;62.83
1207;BME280;593;53.184;8.216;2022-09-02T00:04:48;101632.06;;;18.08;62.97
1207;BME280;593;53.184;8.216;2022-09-02T00:07:13;101642.66;;;18.14;62.82
1207;BME280;593;53.184;8.216;2022-09-02T00:09:38;101707.50;;;18.47;63.63
1207;BME280;593;53.184;8.216;2022-09-02T00:12:07;101666.28;;;18.29;63.17
1207;BME280;593;53.184;8.216;2022-09-02T00:14:35;101663.34;;;18.25;63.20
1207;BME280;593;53.184;8.216;2022-09-02T00:17:06;101707.09;;;18.40;63.36
1207;BME280;593;53.184;8.216;2022-09-02T00:19:31;101668.66;;;18.22;63.34
1207;BME280;593;53.184;8.216;2022-09-02T00:22:00;101622.50;;;17.91;63.78
1207;BME280;593;53.184;8.216;2022-09-02T00:24:26;101672.34;;;18.17;63.94
1207;BME280;593;53.184;8.216;2022-09-02T00:26:53;101669.91;;;18.16;64.27
1207;BME280;593;53.184;8.216;2022-09-02T00:29:18;101671.34;;;18.13;64.14
1207;BME280;593;53.184;8.216;2022-09-02T00:31:45;101748.94;;;18.56;64.14
1207;BME280;593;53.184;8.216;2022-09-02T00:34:11;101673.88;;;18.10;64.52
1207;BME280;593;53.184;8.216;2022-09-02T00:36:37;101701.31;;;18.28;64.85
1207;BME280;593;53.184;8.216;2022-09-02T00:39:04;101698.34;;;18.25;65.03
1207;BME280;593;53.184;8.216;2022-09-02T00:41:34;101693.44;;;18.22;65.28
1207;BME280;593;53.184;8.216;2022-09-02T00:44:07;101704.34;;;18.27;65.00
1207;BME280;593;53.184;8.216;2022-09-02T00:46:34;101698.94;;;18.22;65.23
1207;BME280;593;53.184;8.216;2022-09-02T00:49:23;101700.88;;;18.21;65.88
1207;BME280;593;53.184;8.216;2022-09-02T00:52:07;101738.50;;;18.39;65.93
1207;BME280;593;53.184;8.216;2022-09-02T00:54:43;101697.13;;;18.17;65.40
1207;BME280;593;53.184;8.216;2022-09-02T00:57:25;101725.66;;;18.35;66.15
1207;BME280;593;53.184;8.216;2022-09-02T01:02:37;101684.88;;;18.10;66.01
1207;BME280;593;53.184;8.216;2022-09-02T01:05:07;101690.81;;;18.03;66.76
1207;BME280;593;53.184;8.216;2022-09-02T01:07:42;101693.56;;;18.03;66.13
1207;BME280;593;53.184;8.216;2022-09-02T01:10:22;101699.59;;;18.05;66.49
1207;BME280;593;53.184;8.216;2022-09-02T01:12:48;101735.56;;;18.22;66.50
1207;BME280;593;53.184;8.216;2022-09-02T01:15:14;101684.91;;;17.96;66.46
1207;BME280;593;53.184;8.216;2022-09-02T01:17:46;101680.31;;;17.91;66.79
1207;BME280;593;53.184;8.216;2022-09-02T01:20:16;101680.94;;;17.88;67.15
1207;BME280;593;53.184;8.216;2022-09-02T01:22:48;101680.13;;;17.88;67.04
1207;BME280;593;53.184;8.216;2022-09-02T01:25:20;101668.06;;;17.84;67.25
1207;BME280;593;53.184;8.216;2022-09-02T01:27:46;101627.19;;;17.50;67.58
1207;BME280;593;53.184;8.216;2022-09-02T01:30:17;101673.91;;;17.82;67.87
1207;BME280;593;53.184;8.216;2022-09-02T01:32:43;101636.38;;;17.59;67.63
1207;BME280;593;53.184;8.216;2022-09-02T01:35:08;101608.50;;;17.33;67.86
1207;BME280;593;53.184;8.216;2022-09-02T01:37:37;101650.44;;;17.58;68.40
1207;BME280;593;53.184;8.216;2022-09-02T01:40:07;101609.03;;;17.36;68.10
1207;BME280;593;53.184;8.216;2022-09-02T01:42:36;101676.53;;;17.74;68.34
1207;BME280;593;53.184;8.216;2022-09-02T01:45:05;101708.66;;;17.92;68.45
1207;BME280;593;53.184;8.216;2022-09-02T01:47:31;101670.34;;;17.68;68.74
1207;BME280;593;53.184;8.216;2022-09-02T01:49:59;101617.81;;;17.38;68.98
1207;BME280;593;53.184;8.216;2022-09-02T01:52:27;101707.94;;;17.86;69.12
1207;BME280;593;53.184;8.216;2022-09-02T01:54:53;101671.22;;;17.64;69.22
1207;BME280;593;53.184;8.216;2022-09-02T01:57:19;101653.72;;;17.60;69.10
1207;BME280;593;53.184;8.216;2022-09-02T01:59:49;101700.09;;;17.80;69.28
1207;BME280;593;53.184;8.216;2022-09-02T02:02:18;101654.63;;;17.55;69.82
1207;BME280;593;53.184;8.216;2022-09-02T02:04:46;101590.69;;;17.17;69.60
1207;BME280;593;53.184;8.216;2022-09-02T02:07:16;101625.09;;;17.28;69.88
1207;BME280;593;53.184;8.216;2022-09-02T02:09:45;101582.22;;;17.00;69.75
1207;BME280;593;53.184;8.216;2022-09-02T02:12:13;101694.28;;;17.68;70.10
1207;BME280;593;53.184;8.216;2022-09-02T02:14:39;101611.56;;;17.18;70.28
1207;BME280;593;53.184;8.216;2022-09-02T02:17:07;101584.66;;;17.02;70.20
1207;BME280;593;53.184;8.216;2022-09-02T02:19:33;101573.00;;;16.91;70.42
1207;BME280;593;53.184;8.216;2022-09-02T02:22:00;101572.22;;;16.91;70.64
1207;BME280;593;53.184;8.216;2022-09-02T02:24:25;101693.66;;;17.57;70.88
1207;BME280;593;53.184;8.216;2022-09-02T02:26:51;101602.38;;;17.09;70.70
1207;BME280;593;53.184;8.216;2022-09-02T02:29:16;101589.41;;;16.96;70.71
1207;BME280;593;53.184;8.216;2022-09-02T02:31:42;101568.94;;;16.89;71.05
1207;BME280;593;53.184;8.216;2022-09-02T02:34:10;101598.63;;;17.05;71.21
1207;BME280;593;53.184;8.216;2022-09-02T02:36:37;101635.91;;;17.25;71.37
1207;BME280;593;53.184;8.216;2022-09-02T02:39:07;101579.66;;;16.90;70.96
1207;BME280;593;53.184;8.216;2022-09-02T02:41:34;101648.53;;;17.26;71.75
1207;BME280;593;53.184;8.216;2022-09-02T02:44:01;101613.38;;;17.09;72.04
1207;BME280;593;53.184;8.216;2022-09-02T02:46:26;101578.81;;;16.90;71.60
1207;BME280;593;53.184;8.216;2022-09-02T02:49:03;101558.44;;;16.77;71.72
1207;BME280;593;53.184;8.216;2022-09-02T02:51:30;101586.16;;;16.94;71.64
1207;BME280;593;53.184;8.216;2022-09-02T02:53:55;101563.19;;;16.72;71.70
1207;BME280;593;53.184;8.216;2022-09-02T02:56:23;101593.16;;;16.87;71.88
1207;BME280;593;53.184;8.216;2022-09-02T02:58:48;101593.97;;;16.87;72.69
1207;BME280;593;53.184;8.216;2022-09-02T03:01:16;101583.91;;;16.83;72.21
1207;BME280;593;53.184;8.216;2022-09-02T03:03:44;101585.50;;;16.84;72.23
1207;BME280;593;53.184;8.216;2022-09-02T03:06:12;101556.25;;;16.60;72.71
1207;BME280;593;53.184;8.216;2022-09-02T03:08:38;101584.50;;;16.80;72.77
1207;BME280;593;53.184;8.216;2022-09-02T03:11:08;101585.59;;;16.79;72.97
1207;BME280;593;53.184;8.216;2022-09-02T03:13:34;101614.78;;;16.93;72.87
1207;BME280;593;53.184;8.216;2022-09-02T03:16:00;101622.13;;;16.98;72.74
1207;BME280;593;53.184;8.216;2022-09-02T03:18:31;101658.31;;;17.18;73.00
1207;BME280;593;53.184;8.216;2022-09-02T03:24:22;101636.59;;;17.03;73.11
1207;BME280;593;53.184;8.216;2022-09-02T03:26:48;101653.50;;;17.10;73.38
1207;BME280;593;53.184;8.216;2022-09-02T03:29:13;101646.97;;;17.06;73.62
1207;BME280;593;53.184;8.216;2022-09-02T03:31:38;101642.88;;;17.04;73.45
1207;BME280;593;53.184;8.216;2022-09-02T03:34:04;101644.53;;;17.05;73.91
1207;BME280;593;53.184;8.216;2022-09-02T03:36:38;101638.50;;;17.03;73.95
1207;BME280;593;53.184;8.216;2022-09-02T03:39:05;101652.53;;;17.01;74.26
1207;BME280;593;53.184;8.216;2022-09-02T03:41:31;101653.97;;;16.99;74.38
1207;BME280;593;53.184;8.216;2022-09-02T03:43:56;101649.59;;;16.98;74.43
1207;BME280;593;53.184;8.216;2022-09-02T03:46:22;101629.72;;;16.87;74.65
1207;BME280;593;53.184;8.216;2022-09-02T03:48:48;101633.56;;;16.86;74.43
1207;BME280;593;53.184;8.216;2022-09-02T03:51:20;101638.97;;;16.91;74.45
1207;BME280;593;53.184;8.216;2022-09-02T03:53:46;101630.69;;;16.78;74.51
1207;BME280;593;53.184;8.216;2022-09-02T03:56:13;101643.22;;;16.84;74.73
1207;BME280;593;53.184;8.216;2022-09-02T03:58:40;101637.44;;;16.85;74.90
1207;BME280;593;53.184;8.216;2022-09-02T04:01:05;101630.38;;;16.79;75.13
1207;BME280;593;53.184;8.216;2022-09-02T04:03:30;101627.44;;;16.76;75.03
1207;BME280;593;53.184;8.216;2022-09-02T04:05:56;101619.28;;;16.71;74.82
1207;BME280;593;53.184;8.216;2022-09-02T04:08:22;101637.81;;;16.79;75.48
1207;BME280;593;53.184;8.216;2022-09-02T04:10:48;101630.47;;;16.74;75.57
1207;BME280;593;53.184;8.216;2022-09-02T04:13:14;101630.78;;;16.73;75.75
1207;BME280;593;53.184;8.216;2022-09-02T04:15:44;101637.59;;;16.75;75.73
1207;BME280;593;53.184;8.216;2022-09-02T04:18:12;101626.38;;;16.72;75.69
1207;BME280;593;53.184;8.216;2022-09-02T04:20:39;101642.38;;;16.70;75.52
1207;BME280;593;53.184;8.216;2022-09-02T04:23:06;101621.06;;;16.61;75.85
1207;BME280;593;53.184;8.216;2022-09-02T04:25:32;101637.47;;;16.66;76.07
1207;BME280;593;53.184;8.216;2022-09-02T04:27:58;101593.38;;;16.39;76.10
1207;BME280;593;53.184;8.216;2022-09-02T04:30:23;101592.78;;;16.42;76.06
1207;BME280;593;53.184;8.216;2022-09-02T04:32:50;101600.63;;;16.49;76.21
1207;BME280;593;53.184;8.216;2022-09-02T04:35:16;101632.34;;;16.60;76.58
1207;BME280;593;53.184;8.216;2022-09-02T04:37:41;101629.88;;;16.58;76.76
1207;BME280;593;53.184;8.216;2022-09-02T04:40:07;101609.19;;;16.47;76.92
1207;BME280;593;53.184;8.216;2022-09-02T04:42:32;101626.13;;;16.54;76.89
1207;BME280;593;53.184;8.216;2022-09-02T04:44:58;101607.34;;;16.43;77.02
1207;BME280;593;53.184;8.216;2022-09-02T04:47:24;101624.25;;;16.50;77.00
1207;BME280;593;53.184;8.216;2022-09-02T04:49:50;101586.94;;;16.30;77.34
1207;BME280;593;53.184;8.216;2022-09-02T04:52:17;101622.91;;;16.47;77.99
1207;BME280;593;53.184;8.216;2022-09-02T04:54:44;101606.78;;;16.41;77.55
1207;BME280;593;53.184;8.216;2022-09-02T04:57:09;101611.50;;;16.40;77.64
1207;BME280;593;53.184;8.216;2022-09-02T04:59:35;101620.75;;;16.44;77.77
1207;BME280;593;53.184;8.216;2022-09-02T05:02:01;101610.34;;;16.41;78.65
1207;BME280;593;53.184;8.216;2022-09-02T05:04:27;101620.81;;;16.39;78.48
1207;BME280;593;53.184;8.216;2022-09-02T05:06:52;101608.19;;;16.38;78.50
1207;BME280;593;53.184;8.216;2022-09-02T05:09:20;101610.66;;;16.40;79.36
1207;BME280;593;53.184;8.216;2022-09-02T05:11:45;101619.72;;;16.40;79.08
1207;BME280;593;53.184;8.216;2022-09-02T05:14:12;101624.91;;;16.42;79.61
1207;BME280;593;53.184;8.216;2022-09-02T05:16:40;101614.50;;;16.39;79.52
1207;BME280;593;53.184;8.216;2022-09-02T05:19:07;101603.91;;;16.32;79.37
1207;BME280;593;53.184;8.216;2022-09-02T05:21:37;101606.44;;;16.29;79.68
1207;BME280;593;53.184;8.216;2022-09-02T05:24:04;101612.75;;;16.29;79.83
1207;BME280;593;53.184;8.216;2022-09-02T05:26:29;101585.22;;;16.16;80.15
1207;BME280;593;53.184;8.216;2022-09-02T05:28:57;101623.06;;;16.37;80.03
1207;BME280;593;53.184;8.216;2022-09-02T05:31:23;101625.22;;;16.40;80.25
1207;BME280;593;53.184;8.216;2022-09-02T05:33:49;101606.97;;;16.31;80.43
1207;BME280;593;53.184;8.216;2022-09-02T05:36:20;101605.84;;;16.32;80.76
1207;BME280;593;53.184;8.216;2022-09-02T05:38:46;101614.81;;;16.37;80.82
1207;BME280;593;53.184;8.216;2022-09-02T05:41:18;101619.41;;;16.42;80.63
1207;BME280;593;53.184;8.216;2022-09-02T05:43:47;101614.81;;;16.37;80.73
1207;BME280;593;53.184;8.216;2022-09-02T05:46:15;101618.59;;;16.41;81.09
1207;BME280;593;53.184;8.216;2022-09-02T05:48:45;101621.34;;;16.41;80.83
1207;BME280;593;53.184;8.216;2022-09-02T05:51:30;101608.31;;;16.33;81.06
1207;BME280;593;53.184;8.216;2022-09-02T05:53:58;101622.16;;;16.42;81.46
1207;BME280;593;53.184;8.216;2022-09-02T05:56:24;101619.41;;;16.42;81.20
1207;BME280;593;53.184;8.216;2022-09-02T05:58:51;101615.25;;;16.44;81.49
1207;BME280;593;53.184;8.216;2022-09-02T06:01:18;101616.34;;;16.43;81.59
1207;BME280;593;53.184;8.216;2022-09-02T06:03:44;101613.09;;;16.41;82.15
1207;BME280;593;53.184;8.216;2022-09-02T06:06:09;101604.34;;;16.39;82.26
1207;BME280;593;53.184;8.216;2022-09-02T06:08:34;101618.50;;;16.46;82.10
1207;BME280;593;53.184;8.216;2022-09-02T06:11:00;101602.94;;;16.42;82.03
1207;BME280;593;53.184;8.216;2022-09-02T06:13:30;101610.28;;;16.46;81.91
1207;BME280;593;53.184;8.216;2022-09-02T06:15:57;101607.75;;;16.50;82.47
1207;BME280;593;53.184;8.216;2022-09-02T06:18:23;101618.19;;;16.53;82.10
1207;BME280;593;53.184;8.216;2022-09-02T06:20:48;101617.88;;;16.54;82.70
1207;BME280;593;53.184;8.216;2022-09-02T06:23:15;101616.78;;;16.55;82.91
1207;BME280;593;53.184;8.216;2022-09-02T06:25:44;101617.06;;;16.54;82.72
1207;BME280;593;53.184;8.216;2022-09-02T06:28:10;101620.84;;;16.58;82.67
1207;BME280;593;53.184;8.216;2022-09-02T06:30:41;101617.81;;;16.59;82.89
1207;BME280;593;53.184;8.216;2022-09-02T06:33:07;101622.69;;;16.62;83.10
1207;BME280;593;53.184;8.216;2022-09-02T06:35:36;101628.94;;;16.68;83.19
1207;BME280;593;53.184;8.216;2022-09-02T06:38:02;101614.97;;;16.64;82.92
1207;BME280;593;53.184;8.216;2022-09-02T06:40:27;101627.22;;;16.72;83.21
1207;BME280;593;53.184;8.216;2022-09-02T06:42:53;101622.16;;;16.79;83.54
1207;BME280;593;53.184;8.216;2022-09-02T06:45:19;101627.47;;;16.89;83.49
1207;BME280;593;53.184;8.216;2022-09-02T06:47:45;101611.81;;;16.90;83.16
1207;BME280;593;53.184;8.216;2022-09-02T06:50:10;101597.25;;;16.89;83.17
1207;BME280;593;53.184;8.216;2022-09-02T06:52:36;101594.31;;;16.99;83.42
1207;BME280;593;53.184;8.216;2022-09-02T06:55:02;101604.75;;;17.16;83.38
1207;BME280;593;53.184;8.216;2022-09-02T06:57:28;101602.09;;;17.24;83.06
1207;BME280;593;53.184;8.216;2022-09-02T06:59:53;101616.38;;;17.40;83.73
1207;BME280;593;53.184;8.216;2022-09-02T07:02:19;101602.22;;;17.47;82.76
1207;BME280;593;53.184;8.216;2022-09-02T07:04:44;101597.97;;;17.54;82.31
1207;BME280;593;53.184;8.216;2022-09-02T07:07:28;101586.94;;;17.54;82.08
1207;BME280;593;53.184;8.216;2022-09-02T07:09:53;101601.72;;;17.72;81.89
1207;BME280;593;53.184;8.216;2022-09-02T07:12:19;101603.97;;;17.83;81.28
1207;BME280;593;53.184;8.216;2022-09-02T07:14:45;101605.56;;;17.98;80.82
1207;BME280;593;53.184;8.216;2022-09-02T07:17:14;101606.69;;;18.11;79.83
1207;BME280;593;53.184;8.216;2022-09-02T07:19:46;101597.03;;;18.22;79.28
1207;BME280;593;53.184;8.216;2022-09-02T07:22:12;101591.53;;;18.22;78.87
1207;BME280;593;53.184;8.216;2022-09-02T07:24:38;101594.50;;;18.25;79.42
1207;BME280;593;53.184;8.216;2022-09-02T07:27:04;101606.97;;;18.45;78.56
1207;BME280;593;53.184;8.216;2022-09-02T07:29:30;101573.81;;;18.36;77.54
1207;BME280;593;53.184;8.216;2022-09-02T07:31:56;101609.28;;;18.65;77.10
1207;BME280;593;53.184;8.216;2022-09-02T07:34:21;101609.16;;;18.70;76.79
1207;BME280;593;53.184;8.216;2022-09-02T07:36:47;101605.94;;;18.77;76.16
1207;BME280;593;53.184;8.216;2022-09-02T07:39:13;101612.63;;;18.84;76.06
1207;BME280;593;53.184;8.216;2022-09-02T07:41:41;101603.13;;;18.90;75.70
1207;BME280;593;53.184;8.216;2022-09-02T07:44:08;101604.91;;;18.95;75.09
1207;BME280;593;53.184;8.216;2022-09-02T07:46:34;101606.44;;;19.01;74.86
1207;BME280;593;53.184;8.216;2022-09-02T07:49:02;101586.25;;;18.92;75.27
1207;BME280;593;53.184;8.216;2022-09-02T07:51:29;101598.81;;;19.06;74.72
1207;BME280;593;53.184;8.216;2022-09-02T07:53:54;101594.13;;;19.07;75.07
1207;BME280;593;53.184;8.216;2022-09-02T07:56:20;101604.06;;;19.16;75.52
1207;BME280;593;53.184;8.216;2022-09-02T07:58:45;101599.84;;;19.19;74.75
1207;BME280;593;53.184;8.216;2022-09-02T08:01:11;101605.44;;;19.28;74.47
1207;BME280;593;53.184;8.216;2022-09-02T08:03:39;101608.69;;;19.30;74.26
1207;BME280;593;53.184;8.216;2022-09-02T08:06:05;101610.81;;;19.33;74.07
1207;BME280;593;53.184;8.216;2022-09-02T08:08:31;101608.53;;;19.35;74.40
1207;BME280;593;53.184;8.216;2022-09-02T08:10:57;101598.66;;;19.34;74.33
1207;BME280;593;53.184;8.216;2022-09-02T08:13:23;101611.38;;;19.43;74.52
1207;BME280;593;53.184;8.216;2022-09-02T08:15:49;101602.13;;;19.48;74.29
1207;BME280;593;53.184;8.216;2022-09-02T08:18:14;101603.44;;;19.50;74.12
1207;BME280;593;53.184;8.216;2022-09-02T08:20:40;101596.28;;;19.49;73.77
1207;BME280;593;53.184;8.216;2022-09-02T08:23:06;101603.63;;;19.54;74.34
1207;BME280;593;53.184;8.216;2022-09-02T08:25:33;101606.56;;;19.57;73.80
1207;BME280;593;53.184;8.216;2022-09-02T08:27:59;101604.78;;;19.61;73.74
1207;BME280;593;53.184;8.216;2022-09-02T08:30:24;101598.63;;;19.64;73.74
1207;BME280;593;53.184;8.216;2022-09-02T08:32:49;101601.38;;;19.64;74.03
1207;BME280;593;53.184;8.216;2022-09-02T08:35:15;101599.13;;;19.66;73.84
1207;BME280;593;53.184;8.216;2022-09-02T08:37:40;101592.94;;;19.69;73.19
1207;BME280;593;53.184;8.216;2022-09-02T08:40:11;101602.72;;;19.75;74.19
1207;BME280;593;53.184;8.216;2022-09-02T08:42:42;101590.84;;;19.75;74.07
1207;BME280;593;53.184;8.216;2022-09-02T08:48:18;101592.19;;;19.86;74.50
1207;BME280;593;53.184;8.216;2022-09-02T08:50:48;101595.94;;;19.90;74.11
1207;BME280;593;53.184;8.216;2022-09-02T08:56:03;101581.28;;;19.90;73.88
1207;BME280;593;53.184;8.216;2022-09-02T08:58:42;101589.13;;;19.96;73.93
1207;BME280;593;53.184;8.216;2022-09-02T09:01:14;101592.38;;;19.98;73.61
1207;BME280;593;53.184;8.216;2022-09-02T09:06:40;101587.31;;;20.00;74.02
1207;BME280;593;53.184;8.216;2022-09-02T09:09:34;101581.50;;;20.10;74.11
1207;BME280;593;53.184;8.216;2022-09-02T09:15:04;101566.53;;;20.20;73.98
1207;BME280;593;53.184;8.216;2022-09-02T09:17:57;101569.34;;;20.28;74.13
1207;BME280;593;53.184;8.216;2022-09-02T09:20:34;101567.41;;;20.29;73.72
1207;BME280;593;53.184;8.216;2022-09-02T09:23:27;101561.19;;;20.32;73.17
1207;BME280;593;53.184;8.216;2022-09-02T09:25:58;101563.50;;;20.38;72.67
1207;BME280;593;53.184;8.216;2022-09-02T09:28:29;101561.22;;;20.40;72.22
1207;BME280;593;53.184;8.216;2022-09-02T09:30:55;101553.09;;;20.44;72.42
1207;BME280;593;53.184;8.216;2022-09-02T09:33:21;101549.66;;;20.47;71.84
1207;BME280;593;53.184;8.216;2022-09-02T09:35:52;101553.41;;;20.51;71.72
1207;BME280;593;53.184;8.216;2022-09-02T09:38:47;101548.53;;;20.57;71.87
1207;BME280;593;53.184;8.216;2022-09-02T09:41:21;101543.59;;;20.62;70.54
1207;BME280;593;53.184;8.216;2022-09-02T09:43:48;101533.19;;;20.68;70.04
1207;BME280;593;53.184;8.216;2022-09-02T09:46:28;101535.94;;;20.76;69.66
1207;BME280;593;53.184;8.216;2022-09-02T09:48:54;101535.78;;;20.81;69.76
1207;BME280;593;53.184;8.216;2022-09-02T09:51:19;101529.44;;;20.81;68.76
1207;BME280;593;53.184;8.216;2022-09-02T09:53:45;101529.72;;;20.88;66.82
1207;BME280;593;53.184;8.216;2022-09-02T10:04:03;101531.13;;;21.02;65.03
1207;BME280;593;53.184;8.216;2022-09-02T10:09:03;101533.44;;;21.09;63.42
1207;BME280;593;53.184;8.216;2022-09-02T10:11:34;101507.72;;;21.00;64.00
1207;BME280;593;53.184;8.216;2022-09-02T10:14:03;101516.16;;;21.12;65.20
1207;BME280;593;53.184;8.216;2022-09-02T10:19:34;101510.56;;;21.29;64.66
1207;BME280;593;53.184;8.216;2022-09-02T10:28:18;101508.97;;;21.49;62.13
1207;BME280;593;53.184;8.216;2022-09-02T10:36:23;101488.38;;;21.58;61.82
1207;BME280;593;53.184;8.216;2022-09-02T10:38:59;101499.25;;;21.63;61.72
1207;BME280;593;53.184;8.216;2022-09-02T10:41:42;101480.00;;;21.67;61.99
1207;BME280;593;53.184;8.216;2022-09-02T10:47:00;101484.34;;;21.77;60.98
1207;BME280;593;53.184;8.216;2022-09-02T10:50:00;101477.78;;;21.81;61.56
1207;BME280;593;53.184;8.216;2022-09-02T10:58:02;101462.41;;;21.92;59.37
1207;BME280;593;53.184;8.216;2022-09-02T11:00:31;101476.19;;;22.01;59.46
1207;BME280;593;53.184;8.216;2022-09-02T11:03:20;101463.25;;;22.05;60.61
1207;BME280;593;53.184;8.216;2022-09-02T11:05:49;101475.78;;;22.11;59.63
1207;BME280;593;53.184;8.216;2022-09-02T11:11:06;101455.59;;;22.22;58.66
1207;BME280;593;53.184;8.216;2022-09-02T11:13:46;101449.25;;;22.22;59.16
1207;BME280;593;53.184;8.216;2022-09-02T11:16:22;101443.97;;;22.29;58.98
1207;BME280;593;53.184;8.216;2022-09-02T11:21:47;101445.97;;;22.41;58.32
1207;BME280;593;53.184;8.216;2022-09-02T11:29:50;101444.63;;;22.59;56.88
1207;BME280;593;53.184;8.216;2022-09-02T11:32:30;101435.75;;;22.65;57.21
1207;BME280;593;53.184;8.216;2022-09-02T11:35:03;101430.19;;;22.65;56.23
1207;BME280;593;53.184;8.216;2022-09-02T11:40:25;101426.50;;;22.73;53.93
1207;BME280;593;53.184;8.216;2022-09-02T11:45:53;101410.78;;;22.77;53.47
1207;BME280;593;53.184;8.216;2022-09-02T11:53:37;101410.44;;;22.91;51.53
1207;BME280;593;53.184;8.216;2022-09-02T11:56:15;101418.69;;;23.00;51.77
1207;BME280;593;53.184;8.216;2022-09-02T11:58:50;101409.16;;;23.01;49.16
1207;BME280;593;53.184;8.216;2022-09-02T12:03:48;101401.78;;;23.05;48.66
1207;BME280;593;53.184;8.216;2022-09-02T12:06:17;101391.94;;;22.95;47.36
1207;BME280;593;53.184;8.216;2022-09-02T12:11:45;101419.56;;;23.16;49.47
1207;BME280;593;53.184;8.216;2022-09-02T12:17:07;101402.06;;;23.27;49.20
1207;BME280;593;53.184;8.216;2022-09-02T12:19:41;101403.09;;;23.35;49.43
1207;BME280;593;53.184;8.216;2022-09-02T12:24:56;101385.53;;;23.43;49.77
1207;BME280;593;53.184;8.216;2022-09-02T12:27:35;101381.94;;;23.54;49.82
1207;BME280;593;53.184;8.216;2022-09-02T12:30:04;101369.75;;;23.59;49.86
1207;BME280;593;53.184;8.216;2022-09-02T12:35:20;101377.72;;;23.88;48.69
1207;BME280;593;53.184;8.216;2022-09-02T12:37:55;101376.50;;;24.01;48.39
1207;BME280;593;53.184;8.216;2022-09-02T12:40:33;101368.63;;;24.03;48.39
1207;BME280;593;53.184;8.216;2022-09-02T12:43:04;101361.41;;;24.14;48.96
1207;BME280;593;53.184;8.216;2022-09-02T12:45:42;101362.94;;;24.28;48.37
1207;BME280;593;53.184;8.216;2022-09-02T12:55:59;101352.47;;;24.52;46.07
1207;BME280;593;53.184;8.216;2022-09-02T12:58:34;101348.88;;;24.52;45.20
1207;BME280;593;53.184;8.216;2022-09-02T13:04:16;101349.13;;;24.62;45.77
1207;BME280;593;53.184;8.216;2022-09-02T13:09:58;101344.72;;;24.61;43.38
1207;BME280;593;53.184;8.216;2022-09-02T13:12:43;101335.22;;;24.62;45.37
1207;BME280;593;53.184;8.216;2022-09-02T13:26:56;101327.00;;;25.01;44.00
1207;BME280;593;53.184;8.216;2022-09-02T13:32:33;101310.66;;;24.99;43.54
1207;BME280;593;53.184;8.216;2022-09-02T13:35:07;101311.09;;;25.01;43.89
1207;BME280;593;53.184;8.216;2022-09-02T13:37:41;101323.56;;;25.07;44.02
1207;BME280;593;53.184;8.216;2022-09-02T13:42:38;101317.88;;;25.19;44.10
1207;BME280;593;53.184;8.216;2022-09-02T13:45:13;101319.25;;;25.29;43.79
1207;BME280;593;53.184;8.216;2022-09-02T13:47:44;101302.56;;;25.29;43.92
1207;BME280;593;53.184;8.216;2022-09-02T13:50:17;101312.97;;;25.32;44.06
1207;BME280;593;53.184;8.216;2022-09-02T13:52:46;101309.06;;;25.36;41.81
1207;BME280;593;53.184;8.216;2022-09-02T13:55:14;101311.88;;;25.36;42.42
1207;BME280;593;53.184;8.216;2022-09-02T13:58:00;101308.34;;;25.39;41.56
1207;BME280;593;53.184;8.216;2022-09-02T14:00:34;101297.84;;;25.33;42.33
1207;BME280;593;53.184;8.216;2022-09-02T14:03:20;101301.88;;;25.35;41.30
1207;BME280;593;53.184;8.216;2022-09-02T14:05:50;101297.94;;;25.36;41.22
1207;BME280;593;53.184;8.216;2022-09-02T14:08:21;101292.78;;;25.38;42.75
1207;BME280;593;53.184;8.216;2022-09-02T14:10:48;101298.19;;;25.47;42.28
1207;BME280;593;53.184;8.216;2022-09-02T14:13:16;101298.19;;;25.47;42.97
1207;BME280;593;53.184;8.216;2022-09-02T14:15:42;101287.84;;;25.48;43.11
1207;BME280;593;53.184;8.216;2022-09-02T14:18:15;101294.50;;;25.62;42.81
1207;BME280;593;53.184;8.216;2022-09-02T14:23:25;101273.03;;;25.63;41.00
1207;BME280;593;53.184;8.216;2022-09-02T14:25:59;101286.97;;;25.63;41.42
1207;BME280;593;53.184;8.216;2022-09-02T14:28:27;101281.00;;;25.64;41.58
1207;BME280;593;53.184;8.216;2022-09-02T14:31:02;101276.28;;;25.68;42.74
1207;BME280;593;53.184;8.216;2022-09-02T14:33:38;101280.41;;;25.74;42.94
1207;BME280;593;53.184;8.216;2022-09-02T14:36:08;101281.78;;;25.84;42.68
1207;BME280;593;53.184;8.216;2022-09-02T14:38:49;101271.47;;;25.88;42.83
1207;BME280;593;53.184;8.216;2022-09-02T14:43:44;101269.31;;;26.00;42.39
1207;BME280;593;53.184;8.216;2022-09-02T14:48:56;101264.38;;;26.13;41.98
1207;BME280;593;53.184;8.216;2022-09-02T14:51:26;101266.84;;;26.18;40.81
1207;BME280;593;53.184;8.216;2022-09-02T14:53:53;101265.31;;;26.21;41.17
1207;BME280;593;53.184;8.216;2022-09-02T14:56:45;101264.94;;;26.22;40.61
1207;BME280;593;53.184;8.216;2022-09-02T14:59:11;101260.13;;;26.19;40.52
1207;BME280;593;53.184;8.216;2022-09-02T15:01:47;101266.13;;;26.21;40.97
1207;BME280;593;53.184;8.216;2022-09-02T15:04:14;101257.31;;;26.19;40.53
1207;BME280;593;53.184;8.216;2022-09-02T15:06:41;101254.53;;;26.19;40.67
1207;BME280;593;53.184;8.216;2022-09-02T15:09:07;101262.16;;;26.22;40.86
1207;BME280;593;53.184;8.216;2022-09-02T15:11:32;101265.75;;;26.23;40.78
1207;BME280;593;53.184;8.216;2022-09-02T15:13:58;101251.75;;;26.19;38.48
1207;BME280;593;53.184;8.216;2022-09-02T15:16:23;101253.69;;;26.15;39.88
1207;BME280;593;53.184;8.216;2022-09-02T15:18:49;101243.75;;;26.18;40.76
1207;BME280;593;53.184;8.216;2022-09-02T15:21:14;101246.97;;;26.20;40.53
1207;BME280;593;53.184;8.216;2022-09-02T15:23:40;101249.38;;;26.21;39.52
1207;BME280;593;53.184;8.216;2022-09-02T15:26:06;101249.69;;;26.16;39.96
1207;BME280;593;53.184;8.216;2022-09-02T15:28:32;101239.66;;;26.12;39.19
1207;BME280;593;53.184;8.216;2022-09-02T15:30:59;101243.69;;;26.14;39.24
1207;BME280;593;53.184;8.216;2022-09-02T15:33:25;101240.16;;;26.17;40.12
1207;BME280;593;53.184;8.216;2022-09-02T15:35:51;101250.50;;;26.17;39.44
1207;BME280;593;53.184;8.216;2022-09-02T15:38:17;101229.97;;;26.05;40.03
1207;BME280;593;53.184;8.216;2022-09-02T15:40:42;101242.81;;;26.10;39.61